Time;durP1;ratioP1;P1;durP2;ratioP2;P2;SDS_P1;SDS_P2;PMS_P1;PMS_P2;Temp;Humidity;BMP_temperature;BMP_pressure;BME280_temperature;BME280_humidity;BME280_pressure;Samples;Min_cycle;Max_cycle;Signal;HPM_P1;HPM_P2
2021/09/25 00:01:47;;;;;;;7.03;5.00;;;18.70;79.00;;;;;;5086802;28;20032;-71
2021/09/25 00:04:13;;;;;;;8.23;5.57;;;18.70;79.00;;;;;;5090336;28;20035;-73
2021/09/25 00:06:38;;;;;;;7.18;5.35;;;18.70;78.80;;;;;;5088807;28;20450;-73
2021/09/25 00:09:04;;;;;;;8.40;5.60;;;18.70;78.90;;;;;;5076035;28;20058;-73
2021/09/25 00:11:30;;;;;;;8.48;5.10;;;18.80;78.80;;;;;;5090202;28;20020;-73
2021/09/25 00:13:57;;;;;;;7.70;5.15;;;18.70;78.60;;;;;;5090259;28;20020;-73
2021/09/25 00:16:26;;;;;;;5.63;4.93;;;18.70;78.50;;;;;;5091118;28;20486;-73
2021/09/25 00:18:56;;;;;;;7.07;5.35;;;18.70;78.50;;;;;;5091402;28;20024;-73
2021/09/25 00:21:23;;;;;;;7.47;5.47;;;18.70;78.50;;;;;;5077443;28;20032;-73
2021/09/25 00:23:49;;;;;;;5.28;4.43;;;18.70;78.50;;;;;;5087403;28;20051;-73
2021/09/25 00:26:15;;;;;;;7.88;5.05;;;18.70;78.50;;;;;;5089840;28;20060;-73
2021/09/25 00:28:42;;;;;;;10.75;5.18;;;18.60;78.60;;;;;;5089739;28;20032;-70
2021/09/25 00:31:07;;;;;;;7.50;4.95;;;18.60;78.50;;;;;;5089764;28;20082;-70
2021/09/25 00:33:33;;;;;;;7.10;4.80;;;18.60;78.40;;;;;;5084231;28;20051;-70
2021/09/25 00:36:00;;;;;;;5.60;4.35;;;18.50;78.30;;;;;;5090674;28;20042;-70
2021/09/25 00:38:26;;;;;;;5.28;4.60;;;18.60;78.30;;;;;;5083285;28;20432;-70
2021/09/25 00:40:52;;;;;;;6.68;4.82;;;18.60;78.30;;;;;;5082591;28;20032;-70
2021/09/25 00:43:17;;;;;;;5.80;4.15;;;18.50;78.40;;;;;;5090842;28;20028;-69
2021/09/25 00:45:43;;;;;;;6.15;4.63;;;18.50;78.20;;;;;;5078486;28;20029;-69
2021/09/25 00:48:09;;;;;;;5.25;4.75;;;18.60;78.30;;;;;;5086625;28;20036;-69
2021/09/25 00:50:35;;;;;;;8.07;4.93;;;18.50;77.90;;;;;;5089796;28;20024;-70
2021/09/25 00:53:01;;;;;;;5.15;4.10;;;18.50;77.90;;;;;;5089424;28;20482;-70
2021/09/25 00:55:27;;;;;;;8.07;5.50;;;18.50;78.00;;;;;;5072610;28;20095;-70
2021/09/25 00:57:58;;;;;;;5.88;3.95;;;18.50;77.80;;;;;;5089001;28;20758;-69
2021/09/25 01:00:25;;;;;;;4.40;4.00;;;18.50;77.60;;;;;;5088668;28;20080;-69
2021/09/25 01:02:51;;;;;;;6.90;4.25;;;18.50;77.40;;;;;;5090650;28;20024;-70
2021/09/25 01:05:19;;;;;;;6.63;4.30;;;18.50;77.50;;;;;;5090761;28;20055;-69
2021/09/25 01:07:45;;;;;;;6.20;3.97;;;18.50;78.10;;;;;;5070385;28;20009;-70
2021/09/25 01:10:11;;;;;;;4.35;3.95;;;18.50;77.30;;;;;;5076615;28;20029;-71
2021/09/25 01:12:37;;;;;;;4.32;3.90;;;18.40;77.40;;;;;;5087772;28;20039;-70
2021/09/25 01:15:05;;;;;;;6.25;4.35;;;18.50;77.50;;;;;;5089713;28;20555;-71
2021/09/25 01:17:31;;;;;;;5.30;4.40;;;18.50;77.60;;;;;;5090438;28;20031;-70
2021/09/25 01:19:58;;;;;;;10.55;4.72;;;18.50;77.60;;;;;;5090228;28;20055;-70
2021/09/25 01:22:23;;;;;;;7.78;4.95;;;18.50;77.40;;;;;;5088739;28;20028;-70
2021/09/25 01:24:50;;;;;;;10.20;4.47;;;18.50;77.50;;;;;;5088606;28;20030;-69
2021/09/25 01:27:16;;;;;;;7.15;3.75;;;18.50;77.50;;;;;;5090544;28;20056;-73
2021/09/25 01:29:42;;;;;;;7.28;4.10;;;18.50;77.60;;;;;;5088706;28;20097;-73
2021/09/25 01:32:07;;;;;;;6.43;3.53;;;18.50;77.50;;;;;;5068753;28;20053;-73
2021/09/25 01:34:34;;;;;;;6.30;3.60;;;18.50;77.20;;;;;;5085583;28;20466;-73
2021/09/25 01:37:01;;;;;;;4.78;3.65;;;18.50;77.10;;;;;;5089819;28;20032;-73
2021/09/25 01:39:27;;;;;;;5.55;3.60;;;18.50;77.20;;;;;;5088425;28;20025;-73
2021/09/25 01:41:53;;;;;;;6.20;3.55;;;18.50;77.40;;;;;;5068387;28;20505;-73
2021/09/25 01:44:19;;;;;;;4.70;3.97;;;18.50;77.40;;;;;;5105431;27;20032;-73
2021/09/25 01:46:45;;;;;;;6.50;4.22;;;18.50;77.50;;;;;;5068717;28;20521;-73
2021/09/25 01:49:11;;;;;;;7.30;4.82;;;18.50;77.50;;;;;;5087045;28;20038;-71
2021/09/25 01:51:37;;;;;;;5.55;4.93;;;18.50;77.50;;;;;;5089070;28;20103;-73
2021/09/25 01:54:05;;;;;;;7.57;5.25;;;18.40;77.50;;;;;;5088436;28;20081;-73
2021/09/25 01:56:30;;;;;;;8.35;6.05;;;18.40;77.60;;;;;;5089593;28;20402;-73
2021/09/25 01:58:56;;;;;;;12.25;6.88;;;18.40;77.70;;;;;;5089361;28;20015;-73
2021/09/25 02:01:22;;;;;;;5.72;5.13;;;18.40;77.90;;;;;;5088657;28;20059;-73
2021/09/25 02:03:48;;;;;;;6.93;5.10;;;18.40;78.20;;;;;;5088051;28;20028;-73
2021/09/25 02:06:14;;;;;;;7.55;5.88;;;18.40;78.20;;;;;;5067387;28;20028;-73
2021/09/25 02:08:41;;;;;;;8.15;6.32;;;18.40;78.40;;;;;;5082919;28;20032;-73
2021/09/25 02:11:08;;;;;;;7.47;6.40;;;18.30;78.30;;;;;;5089549;28;20519;-73
2021/09/25 02:13:34;;;;;;;7.15;6.43;;;18.40;78.40;;;;;;5088320;28;20074;-73
2021/09/25 02:16:00;;;;;;;9.65;6.50;;;18.30;78.40;;;;;;5089328;28;20433;-73
2021/09/25 02:18:26;;;;;;;11.27;7.50;;;18.30;78.60;;;;;;5089867;28;20027;-73
2021/09/25 02:20:53;;;;;;;8.88;6.85;;;18.30;78.60;;;;;;5086766;28;20421;-73
2021/09/25 02:23:19;;;;;;;13.68;6.70;;;18.20;78.60;;;;;;5089496;28;20115;-73
2021/09/25 02:25:45;;;;;;;8.70;6.28;;;18.20;78.80;;;;;;5086956;28;20566;-70
2021/09/25 02:28:11;;;;;;;9.63;7.07;;;18.20;78.80;;;;;;5076195;28;20033;-70
2021/09/25 02:30:37;;;;;;;8.77;6.78;;;18.20;78.90;;;;;;5070684;28;20060;-71
2021/09/25 02:33:03;;;;;;;9.80;7.47;;;18.20;78.80;;;;;;5088141;28;20051;-69
2021/09/25 02:35:29;;;;;;;9.77;7.60;;;18.20;79.00;;;;;;5088872;28;20576;-70
2021/09/25 02:37:55;;;;;;;14.95;7.70;;;18.20;79.00;;;;;;5086033;28;20024;-70
2021/09/25 02:40:23;;;;;;;8.13;7.28;;;18.10;79.10;;;;;;5077958;28;20111;-70
2021/09/25 02:42:49;;;;;;;10.90;8.23;;;18.20;79.30;;;;;;5089209;28;20062;-70
2021/09/25 02:45:16;;;;;;;10.30;8.40;;;18.10;79.30;;;;;;5088955;28;20020;-71
2021/09/25 02:47:42;;;;;;;9.60;7.78;;;18.10;79.20;;;;;;5089136;28;20024;-70
2021/09/25 02:50:12;;;;;;;9.05;7.55;;;18.20;79.30;;;;;;5088034;28;20031;-70
2021/09/25 02:52:39;;;;;;;9.63;7.88;;;18.10;79.20;;;;;;5088737;28;20024;-70
2021/09/25 02:55:05;;;;;;;11.30;8.05;;;18.20;79.30;;;;;;5088799;28;20052;-70
2021/09/25 02:57:31;;;;;;;8.43;7.53;;;18.10;79.30;;;;;;5073515;28;20035;-70
2021/09/25 02:59:57;;;;;;;9.68;7.72;;;18.10;79.30;;;;;;5089368;28;20517;-70
2021/09/25 03:02:23;;;;;;;11.77;8.27;;;18.10;79.40;;;;;;5087832;28;20074;-70
2021/09/25 03:04:48;;;;;;;11.63;8.25;;;18.10;79.40;;;;;;5087170;28;20036;-70
2021/09/25 03:07:14;;;;;;;10.73;7.90;;;18.10;79.40;;;;;;5087194;28;20051;-70
2021/09/25 03:09:40;;;;;;;13.10;7.90;;;18.00;79.30;;;;;;5081975;28;20387;-70
2021/09/25 03:12:06;;;;;;;11.15;7.93;;;18.00;79.50;;;;;;5088997;28;20032;-70
2021/09/25 03:14:32;;;;;;;12.27;8.25;;;18.00;79.50;;;;;;5087433;28;20020;-70
2021/09/25 03:16:58;;;;;;;10.82;8.60;;;18.00;79.60;;;;;;5087533;28;20450;-70
2021/09/25 03:19:24;;;;;;;12.77;8.48;;;18.00;79.60;;;;;;5077858;28;20025;-70
2021/09/25 03:21:49;;;;;;;9.98;7.95;;;18.00;79.70;;;;;;5087010;28;20085;-70
2021/09/25 03:24:15;;;;;;;10.32;8.20;;;18.00;79.70;;;;;;5086201;28;20339;-70
2021/09/25 03:26:41;;;;;;;10.82;8.45;;;18.00;79.70;;;;;;5076857;28;20040;-69
2021/09/25 03:29:08;;;;;;;11.05;8.68;;;18.00;79.80;;;;;;5088856;28;20025;-69
2021/09/25 03:31:34;;;;;;;12.90;8.95;;;17.90;79.80;;;;;;5088650;28;20044;-70
2021/09/25 03:33:59;;;;;;;14.48;9.52;;;17.90;79.80;;;;;;5088456;28;20020;-70
2021/09/25 03:36:25;;;;;;;11.23;8.38;;;17.90;79.90;;;;;;5083644;28;20054;-70
2021/09/25 03:38:51;;;;;;;10.70;8.63;;;17.90;79.90;;;;;;5080038;28;20479;-71
2021/09/25 03:41:17;;;;;;;15.48;9.18;;;17.90;80.00;;;;;;5084757;28;20065;-71
2021/09/25 03:43:44;;;;;;;14.25;9.48;;;17.90;80.00;;;;;;5089804;28;20449;-70
2021/09/25 03:46:10;;;;;;;12.95;9.60;;;17.90;79.90;;;;;;5079286;28;20031;-70
2021/09/25 03:48:36;;;;;;;14.10;9.57;;;17.90;79.90;;;;;;5085011;28;20478;-70
2021/09/25 03:51:01;;;;;;;12.43;9.77;;;17.90;79.90;;;;;;5080706;28;20025;-70
2021/09/25 03:53:27;;;;;;;14.18;9.57;;;17.90;80.00;;;;;;5084698;28;20063;-70
2021/09/25 03:55:53;;;;;;;11.95;9.80;;;17.80;80.20;;;;;;5090425;28;20044;-71
2021/09/25 03:58:19;;;;;;;14.40;10.32;;;17.80;80.10;;;;;;5090689;28;20024;-70
2021/09/25 04:00:44;;;;;;;15.23;10.23;;;17.80;80.10;;;;;;5090564;28;20115;-73
2021/09/25 04:03:11;;;;;;;12.57;9.95;;;17.80;80.10;;;;;;5083878;28;20491;-73
2021/09/25 04:05:38;;;;;;;12.07;9.35;;;17.80;80.10;;;;;;5087654;28;20024;-73
2021/09/25 04:08:04;;;;;;;12.30;10.18;;;17.80;80.20;;;;;;5089467;28;20514;-75
2021/09/25 04:10:30;;;;;;;15.48;11.02;;;17.80;80.20;;;;;;5091227;28;20033;-72
2021/09/25 04:12:56;;;;;;;13.00;10.20;;;17.80;80.20;;;;;;5080395;28;20082;-73
2021/09/25 04:15:22;;;;;;;13.32;9.60;;;17.80;80.10;;;;;;5084373;28;20141;-73
2021/09/25 04:17:49;;;;;;;12.40;10.02;;;17.80;80.20;;;;;;5090739;28;20032;-73
2021/09/25 04:20:15;;;;;;;14.30;9.95;;;17.80;80.20;;;;;;5079848;28;20029;-72
2021/09/25 04:22:41;;;;;;;14.63;10.25;;;17.70;80.30;;;;;;5078195;28;20154;-73
2021/09/25 04:25:08;;;;;;;13.38;10.40;;;17.80;80.60;;;;;;5087329;28;20457;-73
2021/09/25 04:27:34;;;;;;;16.75;9.75;;;17.70;80.50;;;;;;5078252;28;20036;-73
2021/09/25 04:30:04;;;;;;;13.75;9.85;;;17.80;80.40;;;;;;5080593;28;20036;-73
2021/09/25 04:32:30;;;;;;;13.25;10.40;;;17.70;80.50;;;;;;5086584;28;20059;-69
2021/09/25 04:34:56;;;;;;;13.15;9.82;;;17.70;80.60;;;;;;5058095;28;20074;-69
2021/09/25 04:37:22;;;;;;;16.20;11.00;;;17.70;80.50;;;;;;5084801;28;20032;-69
2021/09/25 04:39:48;;;;;;;12.80;10.00;;;17.70;80.40;;;;;;5088761;28;20423;-69
2021/09/25 04:42:14;;;;;;;15.52;10.88;;;17.70;80.50;;;;;;5088111;28;20108;-69
2021/09/25 04:44:40;;;;;;;11.20;9.32;;;17.70;80.60;;;;;;5083600;28;20086;-70
2021/09/25 04:47:09;;;;;;;12.13;10.00;;;17.70;80.50;;;;;;5090806;28;20128;-69
2021/09/25 04:49:35;;;;;;;14.65;11.15;;;17.70;80.50;;;;;;5076473;28;20149;-69
2021/09/25 04:52:01;;;;;;;16.45;10.23;;;17.70;80.60;;;;;;5087920;28;20530;-70
2021/09/25 04:54:26;;;;;;;14.23;10.98;;;17.70;80.70;;;;;;5086372;28;20032;-69
2021/09/25 04:56:52;;;;;;;15.43;10.32;;;17.70;80.70;;;;;;5090602;28;20020;-69
2021/09/25 04:59:18;;;;;;;16.20;9.98;;;17.70;80.80;;;;;;5082902;28;20029;-69
2021/09/25 05:01:44;;;;;;;14.18;10.82;;;17.70;80.70;;;;;;5062041;28;20037;-70
2021/09/25 05:04:10;;;;;;;15.38;11.32;;;17.70;80.70;;;;;;5121829;27;20490;-69
2021/09/25 05:06:36;;;;;;;15.93;9.68;;;17.70;80.90;;;;;;5078295;28;20025;-70
2021/09/25 05:09:02;;;;;;;16.23;11.20;;;17.70;80.60;;;;;;5086363;28;20091;-69
2021/09/25 05:11:28;;;;;;;13.10;10.75;;;17.60;80.50;;;;;;5089322;28;20064;-69
2021/09/25 05:13:53;;;;;;;14.68;10.50;;;17.60;80.90;;;;;;5078498;28;20113;-69
2021/09/25 05:16:19;;;;;;;14.23;10.23;;;17.60;80.90;;;;;;5089006;28;20074;-69
2021/09/25 05:18:45;;;;;;;13.63;10.63;;;17.60;81.10;;;;;;5078547;28;20024;-69
2021/09/25 05:21:11;;;;;;;13.65;10.05;;;17.60;81.00;;;;;;5083676;28;20028;-69
2021/09/25 05:23:37;;;;;;;13.35;9.85;;;17.60;80.90;;;;;;5080042;28;20178;-69
2021/09/25 05:26:05;;;;;;;13.57;9.75;;;17.60;80.80;;;;;;5072927;28;20466;-69
2021/09/25 05:28:31;;;;;;;13.30;10.32;;;17.60;80.70;;;;;;5078197;28;20070;-70
2021/09/25 05:30:57;;;;;;;11.77;9.68;;;17.50;80.90;;;;;;5086235;28;20048;-70
2021/09/25 05:33:23;;;;;;;16.77;11.25;;;17.60;81.20;;;;;;5090690;28;20056;-70
2021/09/25 05:35:49;;;;;;;15.32;10.60;;;17.50;80.90;;;;;;5091423;28;20039;-70
2021/09/25 05:38:14;;;;;;;15.85;10.15;;;17.60;81.00;;;;;;5093533;28;20024;-69
2021/09/25 05:40:40;;;;;;;13.43;10.18;;;17.60;81.00;;;;;;5090049;28;20059;-69
2021/09/25 05:43:06;;;;;;;13.82;9.65;;;17.60;81.20;;;;;;5085946;28;20486;-69
2021/09/25 05:45:32;;;;;;;14.02;9.90;;;17.60;81.00;;;;;;5089651;28;20367;-70
2021/09/25 05:47:57;;;;;;;15.63;10.75;;;17.50;81.10;;;;;;5088643;28;20024;-69
2021/09/25 05:50:23;;;;;;;12.38;9.65;;;17.50;81.00;;;;;;5088675;28;20115;-69
2021/09/25 05:52:49;;;;;;;14.88;10.80;;;17.60;81.10;;;;;;5088153;28;20043;-69
2021/09/25 05:55:15;;;;;;;14.68;9.98;;;17.60;81.00;;;;;;5104046;28;20020;-70
2021/09/25 05:57:44;;;;;;;12.38;9.50;;;17.60;81.20;;;;;;5065936;28;20059;-70
2021/09/25 06:00:11;;;;;;;13.30;10.00;;;17.60;81.20;;;;;;5089973;28;20020;-69
2021/09/25 06:02:40;;;;;;;17.80;11.27;;;17.60;81.50;;;;;;5076819;28;20138;-70
2021/09/25 06:05:10;;;;;;;12.57;9.90;;;17.60;81.30;;;;;;5092672;28;20055;-70
2021/09/25 06:07:36;;;;;;;13.52;10.27;;;17.60;81.20;;;;;;5089226;28;20130;-69
2021/09/25 06:10:04;;;;;;;14.50;9.80;;;17.60;81.10;;;;;;5089750;28;20062;-69
2021/09/25 06:12:30;;;;;;;14.40;10.43;;;17.50;81.10;;;;;;5089118;28;20055;-69
2021/09/25 06:14:56;;;;;;;13.00;9.38;;;17.50;81.10;;;;;;5079908;28;20025;-73
2021/09/25 06:17:22;;;;;;;12.98;8.80;;;17.50;81.20;;;;;;5069525;28;20103;-73
2021/09/25 06:19:48;;;;;;;12.98;9.57;;;17.40;81.40;;;;;;5087515;28;20023;-73
2021/09/25 06:22:14;;;;;;;10.52;8.90;;;17.40;81.70;;;;;;5067605;28;20032;-73
2021/09/25 06:24:40;;;;;;;13.35;8.77;;;17.50;81.70;;;;;;5088578;28;20042;-73
2021/09/25 06:27:06;;;;;;;14.75;9.85;;;17.50;81.80;;;;;;5088260;28;20025;-73
2021/09/25 06:29:32;;;;;;;12.48;9.60;;;17.50;81.60;;;;;;5087305;28;20051;-73
2021/09/25 06:31:59;;;;;;;11.48;9.27;;;17.50;81.50;;;;;;5089045;28;20059;-73
2021/09/25 06:34:24;;;;;;;11.90;9.70;;;17.50;81.80;;;;;;5083433;28;20024;-73
2021/09/25 06:36:50;;;;;;;13.73;9.75;;;17.50;81.50;;;;;;5087645;28;20390;-73
2021/09/25 06:39:16;;;;;;;16.38;10.00;;;17.50;81.50;;;;;;5085663;28;20020;-73
2021/09/25 06:41:42;;;;;;;10.88;9.00;;;17.50;81.50;;;;;;5095315;28;20032;-73
2021/09/25 06:44:08;;;;;;;15.40;9.35;;;17.50;81.70;;;;;;5090425;28;20382;-73
2021/09/25 06:46:34;;;;;;;13.43;9.13;;;17.50;81.80;;;;;;5087384;28;20028;-73
2021/09/25 06:49:00;;;;;;;11.40;9.80;;;17.50;81.40;;;;;;5087033;28;20042;-73
2021/09/25 06:51:27;;;;;;;15.23;9.40;;;17.50;81.40;;;;;;5085727;28;20028;-73
2021/09/25 06:53:54;;;;;;;13.68;9.32;;;17.50;81.50;;;;;;5091571;28;20294;-73
2021/09/25 06:56:20;;;;;;;11.93;9.93;;;17.50;81.60;;;;;;5098996;28;20031;-73
2021/09/25 06:58:46;;;;;;;12.10;9.25;;;17.50;81.60;;;;;;5107239;28;20063;-73
2021/09/25 07:01:11;;;;;;;13.25;10.13;;;17.50;81.50;;;;;;5092481;28;20059;-70
2021/09/25 07:03:37;;;;;;;10.20;9.15;;;17.50;81.50;;;;;;5095547;28;20035;-69
2021/09/25 07:06:03;;;;;;;13.07;9.52;;;17.50;81.70;;;;;;5087525;28;20028;-70
2021/09/25 07:08:29;;;;;;;13.20;9.45;;;17.50;81.70;;;;;;5086980;28;20040;-73
2021/09/25 07:10:55;;;;;;;13.30;10.15;;;17.60;81.70;;;;;;5086496;28;20035;-70
2021/09/25 07:13:21;;;;;;;15.23;9.68;;;17.60;81.60;;;;;;5079461;28;20032;-70
2021/09/25 07:15:46;;;;;;;11.13;9.57;;;17.60;81.50;;;;;;5082004;28;20070;-70
2021/09/25 07:18:12;;;;;;;11.95;9.27;;;17.60;81.60;;;;;;5091654;28;20028;-70
2021/09/25 07:20:39;;;;;;;15.82;10.27;;;17.60;81.70;;;;;;5070932;28;20032;-70
2021/09/25 07:23:05;;;;;;;15.02;10.73;;;17.60;81.50;;;;;;5091366;28;20545;-70
2021/09/25 07:25:31;;;;;;;14.60;10.20;;;17.60;81.60;;;;;;5083055;28;20106;-70
2021/09/25 07:27:57;;;;;;;12.63;10.63;;;17.60;81.70;;;;;;5087247;28;20381;-70
2021/09/25 07:30:23;;;;;;;12.50;10.27;;;17.60;81.70;;;;;;5080579;28;20031;-70
2021/09/25 07:32:49;;;;;;;13.90;9.80;;;17.60;81.90;;;;;;5088598;28;20375;-74
2021/09/25 07:35:15;;;;;;;13.70;10.20;;;17.50;81.90;;;;;;5089659;28;20059;-72
2021/09/25 07:37:44;;;;;;;15.63;10.73;;;17.60;82.00;;;;;;5090035;28;20028;-74
2021/09/25 07:40:11;;;;;;;13.68;10.15;;;17.60;82.10;;;;;;5090564;28;20055;-74
2021/09/25 07:42:37;;;;;;;15.27;11.27;;;17.60;82.00;;;;;;5091970;28;20115;-74
2021/09/25 07:45:04;;;;;;;12.90;10.50;;;17.60;82.00;;;;;;5091859;28;20487;-74
2021/09/25 07:47:30;;;;;;;13.80;10.05;;;17.60;81.90;;;;;;5092271;28;20040;-74
2021/09/25 07:49:56;;;;;;;13.13;10.48;;;17.70;82.10;;;;;;5091594;28;20703;-74
2021/09/25 07:52:21;;;;;;;15.00;10.57;;;17.60;82.00;;;;;;5089738;28;20364;-74
2021/09/25 07:54:47;;;;;;;15.32;10.55;;;17.70;81.90;;;;;;5091039;28;20016;-74
2021/09/25 07:57:13;;;;;;;15.38;11.50;;;17.70;81.90;;;;;;5090996;28;20505;-72
2021/09/25 07:59:39;;;;;;;13.95;10.32;;;17.70;81.90;;;;;;5091606;28;20027;-72
2021/09/25 08:02:05;;;;;;;14.18;10.38;;;17.70;81.90;;;;;;5078379;28;20544;-72
2021/09/25 08:04:30;;;;;;;14.15;11.70;;;17.70;81.90;;;;;;5089452;28;20044;-72
2021/09/25 08:06:56;;;;;;;14.07;10.65;;;17.70;81.90;;;;;;5088219;28;20073;-79
2021/09/25 08:09:23;;;;;;;15.15;11.93;;;17.80;82.20;;;;;;5069709;28;20037;-72
2021/09/25 08:11:50;;;;;;;16.67;11.15;;;17.80;82.20;;;;;;5088490;28;20028;-72
2021/09/25 08:14:16;;;;;;;15.40;11.77;;;17.80;82.20;;;;;;5091067;28;20047;-70
2021/09/25 08:16:41;;;;;;;17.58;11.95;;;17.80;82.10;;;;;;5091450;28;20032;-72
2021/09/25 08:19:07;;;;;;;18.70;11.88;;;17.80;82.00;;;;;;5091970;28;20028;-72
2021/09/25 08:21:33;;;;;;;13.95;10.82;;;17.90;82.00;;;;;;5083509;28;20024;-72
2021/09/25 08:23:58;;;;;;;16.23;11.60;;;17.90;82.00;;;;;;5088604;28;20040;-73
2021/09/25 08:26:24;;;;;;;16.30;11.35;;;17.90;81.90;;;;;;5090922;28;20034;-72
2021/09/25 08:28:50;;;;;;;13.65;11.30;;;17.90;81.90;;;;;;5090788;28;20047;-72
2021/09/25 08:31:16;;;;;;;17.42;10.95;;;18.00;81.70;;;;;;5089632;28;20048;-72
2021/09/25 08:33:42;;;;;;;15.05;11.55;;;18.00;81.80;;;;;;5090067;28;20024;-72
2021/09/25 08:36:32;;;;;;;13.40;11.18;;;18.00;81.80;;;;;;5082298;28;20644;-72
2021/09/25 08:39:26;;;;;;;16.85;11.90;;;18.00;82.00;;;;;;5077260;28;20021;-73
2021/09/25 08:42:33;;;;;;;16.67;11.70;;;18.00;82.10;;;;;;5084348;28;20383;-72
2021/09/25 08:45:25;;;;;;;14.85;10.90;;;18.00;82.00;;;;;;5068438;28;20477;-72
2021/09/25 08:48:05;;;;;;;15.43;11.82;;;18.00;82.00;;;;;;5063065;28;20058;-72
2021/09/25 08:50:59;;;;;;;19.27;11.77;;;18.00;81.90;;;;;;5068718;28;20041;-73
2021/09/25 08:53:50;;;;;;;18.02;11.23;;;18.10;82.10;;;;;;5048256;28;20089;-69
2021/09/25 08:56:44;;;;;;;16.98;11.63;;;18.10;82.30;;;;;;5063772;28;20048;-68
2021/09/25 08:59:19;;;;;;;14.88;10.60;;;18.10;82.40;;;;;;5034812;28;20052;-69
2021/09/25 09:01:52;;;;;;;18.23;11.43;;;18.10;82.10;;;;;;5031560;28;20033;-69
2021/09/25 09:04:49;;;;;;;13.73;11.55;;;18.10;82.00;;;;;;5026740;28;20049;-69
2021/09/25 09:07:43;;;;;;;16.05;12.02;;;18.10;81.90;;;;;;5024702;28;20033;-69
2021/09/25 09:10:49;;;;;;;15.75;11.05;;;18.10;82.00;;;;;;5023003;28;20045;-69
2021/09/25 09:13:29;;;;;;;11.98;10.18;;;18.10;82.10;;;;;;5024412;28;20209;-70
2021/09/25 09:16:13;;;;;;;16.05;11.23;;;18.10;82.20;;;;;;5000598;28;20592;-70
2021/09/25 09:18:47;;;;;;;15.73;11.93;;;18.20;82.30;;;;;;5025273;28;20033;-69
2021/09/25 09:21:28;;;;;;;19.20;11.73;;;18.20;82.10;;;;;;5023215;28;20045;-72
2021/09/25 09:24:05;;;;;;;18.33;12.27;;;18.20;82.30;;;;;;5028593;28;20025;-72
2021/09/25 09:26:35;;;;;;;17.55;12.25;;;18.20;82.10;;;;;;5021589;28;20038;-73
2021/09/25 09:29:04;;;;;;;17.50;13.50;;;18.20;82.10;;;;;;5001708;28;20041;-72
2021/09/25 09:31:31;;;;;;;18.10;12.65;;;18.20;82.00;;;;;;5021984;28;20053;-72
2021/09/25 09:33:59;;;;;;;18.05;11.93;;;18.20;81.90;;;;;;5008183;28;20037;-72
2021/09/25 09:36:38;;;;;;;15.32;12.32;;;18.30;82.10;;;;;;5024269;28;20092;-72
2021/09/25 09:39:07;;;;;;;19.92;13.05;;;18.30;82.10;;;;;;5024996;28;20471;-72
2021/09/25 09:41:35;;;;;;;21.02;12.65;;;18.40;82.10;;;;;;5026256;28;20033;-72
2021/09/25 09:44:09;;;;;;;18.63;13.25;;;18.40;81.90;;;;;;5026319;28;20064;-72
2021/09/25 09:46:39;;;;;;;18.05;12.27;;;18.40;81.80;;;;;;5026476;28;20438;-72
2021/09/25 09:49:07;;;;;;;16.65;12.10;;;18.40;82.00;;;;;;5025985;28;20425;-72
2021/09/25 09:51:41;;;;;;;18.17;12.63;;;18.40;82.00;;;;;;5020133;28;20520;-72
2021/09/25 09:54:18;;;;;;;17.95;12.38;;;18.40;82.00;;;;;;5023647;28;20570;-72
2021/09/25 09:56:44;;;;;;;19.90;12.77;;;18.40;82.20;;;;;;5026808;28;20034;-72
2021/09/25 09:59:12;;;;;;;18.63;12.70;;;18.40;82.20;;;;;;5024092;28;20145;-72
2021/09/25 10:01:38;;;;;;;17.40;12.10;;;18.50;82.40;;;;;;5008026;28;20454;-72
2021/09/25 10:04:06;;;;;;;18.48;12.50;;;18.50;82.20;;;;;;5023305;28;20069;-72
2021/09/25 10:06:36;;;;;;;18.38;12.00;;;18.60;82.10;;;;;;5026207;28;20036;-72
2021/09/25 10:09:25;;;;;;;20.05;13.82;;;18.60;82.10;;;;;;5031066;28;20048;-72
2021/09/25 10:11:54;;;;;;;18.30;13.07;;;18.60;81.40;;;;;;5023503;28;20242;-68
2021/09/25 10:14:23;;;;;;;17.15;13.48;;;18.60;81.10;;;;;;5045767;28;20040;-69
2021/09/25 10:16:50;;;;;;;17.65;13.25;;;18.60;81.60;;;;;;5046341;28;20029;-69
2021/09/25 10:19:18;;;;;;;18.50;13.70;;;18.60;81.50;;;;;;5046353;28;20571;-68
2021/09/25 10:21:47;;;;;;;18.15;14.20;;;18.60;81.40;;;;;;5046412;28;20071;-69
2021/09/25 10:24:29;;;;;;;19.92;13.85;;;18.60;81.50;;;;;;5094508;28;20073;-69
2021/09/25 10:26:55;;;;;;;15.48;11.35;;;18.60;81.50;;;;;;5087310;28;20028;-72
2021/09/25 10:29:25;;;;;;;18.27;12.85;;;18.70;81.60;;;;;;5093919;28;20031;-72
2021/09/25 10:32:21;;;;;;;18.77;13.45;;;18.70;81.50;;;;;;5121135;27;20525;-72
2021/09/25 10:35:05;;;;;;;18.67;12.73;;;18.70;81.40;;;;;;5095190;28;20024;-72
2021/09/25 10:37:38;;;;;;;22.67;15.15;;;18.70;81.40;;;;;;5087438;28;20031;-72
2021/09/25 10:40:06;;;;;;;18.25;13.73;;;18.70;81.40;;;;;;5086059;28;20107;-72
2021/09/25 10:42:48;;;;;;;17.27;13.40;;;18.80;81.60;;;;;;5086082;28;20119;-72
2021/09/25 10:45:34;;;;;;;21.38;14.35;;;18.80;81.90;;;;;;5099311;28;20032;-72
2021/09/25 10:48:05;;;;;;;20.60;14.68;;;18.80;81.30;;;;;;5082695;28;20190;-72
2021/09/25 10:50:45;;;;;;;20.30;13.65;;;18.80;81.40;;;;;;5090966;28;20043;-72
2021/09/25 10:53:16;;;;;;;16.17;12.38;;;18.90;81.20;;;;;;5091403;28;20020;-72
2021/09/25 10:55:45;;;;;;;19.27;14.87;;;18.90;81.20;;;;;;5077315;28;20074;-73
2021/09/25 10:58:15;;;;;;;18.92;15.00;;;18.90;81.10;;;;;;5086297;28;20027;-72
2021/09/25 11:00:47;;;;;;;20.52;14.65;;;18.90;80.90;;;;;;5091694;28;20019;-72
2021/09/25 11:03:46;;;;;;;22.95;16.10;;;18.90;81.30;;;;;;5093801;28;20024;-72
2021/09/25 11:06:38;;;;;;;18.35;13.55;;;19.00;81.30;;;;;;5092869;28;20026;-72
2021/09/25 11:09:07;;;;;;;23.02;12.98;;;19.10;81.20;;;;;;5089571;28;20032;-69
2021/09/25 11:11:40;;;;;;;20.67;13.70;;;19.10;81.20;;;;;;5084375;28;20024;-69
2021/09/25 11:14:21;;;;;;;18.23;14.75;;;19.20;80.80;;;;;;5085137;28;20028;-72
2021/09/25 11:16:52;;;;;;;22.10;15.93;;;19.20;80.70;;;;;;5088198;28;20528;-69
2021/09/25 11:19:20;;;;;;;22.90;16.27;;;19.30;80.70;;;;;;5091545;28;20375;-73
2021/09/25 11:22:19;;;;;;;20.05;15.35;;;19.30;80.50;;;;;;5090797;28;20027;-72
2021/09/25 11:24:53;;;;;;;21.38;15.77;;;19.30;80.80;;;;;;5057780;28;20165;-72
2021/09/25 11:27:27;;;;;;;19.48;16.33;;;19.30;80.40;;;;;;5090948;28;20131;-72
2021/09/25 11:29:52;;;;;;;21.77;15.63;;;19.40;80.30;;;;;;5091792;28;20028;-69
2021/09/25 11:32:27;;;;;;;25.77;16.13;;;19.40;80.30;;;;;;5089095;28;20059;-70
2021/09/25 11:34:53;;;;;;;18.15;15.25;;;19.40;80.30;;;;;;5089782;28;20146;-69
2021/09/25 11:37:19;;;;;;;21.33;17.05;;;19.50;80.10;;;;;;5093243;28;20064;-70
2021/09/25 11:39:48;;;;;;;20.65;17.02;;;19.50;80.50;;;;;;5100364;28;20035;-69
2021/09/25 11:42:17;;;;;;;23.83;17.13;;;19.40;79.90;;;;;;5094172;28;20028;-72
2021/09/25 11:44:49;;;;;;;21.58;15.98;;;19.40;80.20;;;;;;5089575;28;20035;-72
2021/09/25 11:47:25;;;;;;;20.52;15.85;;;19.50;80.30;;;;;;5089499;28;20117;-72
2021/09/25 11:49:53;;;;;;;21.30;16.95;;;19.50;80.50;;;;;;5084059;28;20464;-72
2021/09/25 11:52:18;;;;;;;18.40;15.18;;;19.50;80.10;;;;;;5083356;28;20137;-69
2021/09/25 11:54:51;;;;;;;19.33;16.15;;;19.60;80.10;;;;;;5088502;28;20060;-68
2021/09/25 12:00:45;;;;;;;24.13;18.30;;;19.60;80.10;;;;;;5088005;28;20023;-72
2021/09/25 12:03:11;;;;;;;;;;;19.60;79.60;;;;;;5085812;28;20094;-72
2021/09/25 12:05:42;;;;;;;20.17;15.32;;;19.60;79.70;;;;;;5087429;28;19916;-72
2021/09/25 12:08:21;;;;;;;26.42;17.38;;;19.60;80.40;;;;;;5096343;28;20020;-72
2021/09/25 12:10:50;;;;;;;26.17;16.48;;;19.70;80.60;;;;;;5087552;28;20562;-72
2021/09/25 12:13:23;;;;;;;18.55;14.77;;;19.70;80.50;;;;;;5088240;28;20024;-72
2021/09/25 12:15:51;;;;;;;20.38;17.08;;;19.80;80.50;;;;;;5084905;28;20032;-72
2021/09/25 12:18:25;;;;;;;20.30;16.33;;;19.90;81.00;;;;;;5088533;28;20600;-73
2021/09/25 12:20:59;;;;;;;25.38;15.75;;;19.90;80.20;;;;;;5085362;28;20035;-72
2021/09/25 12:23:43;;;;;;;22.52;15.85;;;20.00;79.90;;;;;;5090923;28;20035;-72
2021/09/25 12:26:16;;;;;;;20.88;14.75;;;20.00;80.00;;;;;;5096731;28;20040;-72
2021/09/25 12:28:51;;;;;;;19.60;16.05;;;20.00;80.00;;;;;;5085010;28;20028;-72
2021/09/25 12:31:26;;;;;;;17.58;14.50;;;20.00;80.10;;;;;;5088596;28;20051;-72
2021/09/25 12:33:57;;;;;;;20.33;15.88;;;20.00;79.70;;;;;;5094341;28;20449;-72
2021/09/25 12:36:28;;;;;;;18.52;15.60;;;20.00;79.60;;;;;;5091442;28;20095;-72
2021/09/25 12:38:58;;;;;;;19.83;16.27;;;20.10;79.70;;;;;;5093018;28;20392;-69
2021/09/25 12:41:26;;;;;;;22.00;16.23;;;20.10;79.80;;;;;;5084750;28;20031;-69
2021/09/25 12:43:55;;;;;;;18.75;15.15;;;20.10;79.50;;;;;;5071551;28;20024;-72
2021/09/25 12:46:31;;;;;;;21.95;16.92;;;20.10;79.60;;;;;;5077628;28;20047;-72